Time;durP1;ratioP1;P1;durP2;ratioP2;P2;SDS_P1;SDS_P2;PMS_P1;PMS_P2;Temp;Humidity;BMP_temperature;BMP_pressure;BME280_temperature;BME280_humidity;BME280_pressure;Samples;Min_cycle;Max_cycle;Signal;HPM_P1;HPM_P2
2022/05/04 00:01:57;;;;;;;1.60;1.50;;;;;;;13.84;86.49;100201.91;5015625;28;20195;-69
2022/05/04 00:04:23;;;;;;;2.08;1.98;;;;;;;13.99;87.30;100201.94;5015794;28;20214;-69
2022/05/04 00:06:50;;;;;;;2.97;2.08;;;;;;;14.02;88.30;100201.94;5051260;28;20195;-69
2022/05/04 00:09:17;;;;;;;1.77;1.67;;;;;;;14.02;86.36;100195.88;5050036;28;20196;-69
2022/05/04 00:11:44;;;;;;;2.20;2.05;;;;;;;13.89;88.84;100189.72;5051125;28;20203;-69
2022/05/04 00:14:12;;;;;;;3.30;2.08;;;;;;;14.15;96.96;100201.13;5050978;28;20227;-69
2022/05/04 00:16:39;;;;;;;1.90;1.80;;;;;;;13.81;100.00;100154.94;5050212;28;20195;-69
2022/05/04 00:19:06;;;;;;;2.78;2.20;;;;;;;13.75;100.00;100194.91;5050499;28;20203;-69
2022/05/04 00:21:33;;;;;;;2.55;2.35;;;;;;;13.68;100.00;100195.75;5050222;28;20686;-69
2022/05/04 00:24:00;;;;;;;2.13;1.92;;;;;;;13.50;100.00;100200.88;5050767;28;20651;-69
2022/05/04 00:26:26;;;;;;;2.25;2.08;;;;;;;13.29;100.00;100201.63;5050900;28;20195;-70
2022/05/04 00:28:53;;;;;;;4.30;2.40;;;;;;;13.13;100.00;100201.50;5050826;28;20192;-69
2022/05/04 00:31:21;;;;;;;2.70;2.50;;;;;;;13.19;100.00;100171.19;5050891;28;20196;-69
2022/05/04 00:33:48;;;;;;;2.40;2.20;;;;;;;13.14;100.00;100200.66;5031890;28;20207;-69
2022/05/04 00:36:15;;;;;;;2.28;2.10;;;;;;;13.06;100.00;100197.94;5050643;28;20199;-69
2022/05/04 00:38:41;;;;;;;2.15;2.05;;;;;;;12.90;100.00;100199.59;5013835;28;20205;-69
2022/05/04 00:41:08;;;;;;;2.95;1.80;;;;;;;12.76;100.00;100182.13;5050816;28;20550;-69
2022/05/04 00:43:35;;;;;;;1.83;1.73;;;;;;;12.92;100.00;100197.00;5015567;28;20202;-69
2022/05/04 00:46:02;;;;;;;1.50;1.40;;;;;;;13.03;96.15;100197.94;5050544;28;20195;-69
2022/05/04 00:48:30;;;;;;;1.23;1.23;;;;;;;13.31;94.10;100194.69;5012050;28;20205;-69
2022/05/04 00:50:57;;;;;;;1.50;1.42;;;;;;;13.05;91.86;100154.59;5050136;28;20207;-69
2022/05/04 00:53:24;;;;;;;1.02;1.02;;;;;;;13.17;90.02;100172.91;5050376;28;20749;-69
2022/05/04 00:55:51;;;;;;;1.67;1.58;;;;;;;13.39;88.92;100207.75;5050257;28;20246;-69
2022/05/04 01:01:04;;;;;;;1.95;1.85;;;;;;;13.83;89.88;100207.97;5037211;28;20206;-69
2022/05/04 01:03:32;;;;;;;1.98;1.88;;;;;;;13.88;92.29;100208.84;5050559;28;20207;-70
2022/05/04 01:05:59;;;;;;;2.40;2.30;;;;;;;13.44;95.12;100163.50;5050387;28;20195;-70
2022/05/04 01:08:26;;;;;;;4.13;2.03;;;;;;;13.65;96.68;100207.88;5031371;28;20196;-70
2022/05/04 01:10:53;;;;;;;1.95;1.70;;;;;;;13.16;94.23;100176.34;5050269;28;20207;-70
2022/05/04 01:13:21;;;;;;;2.45;2.00;;;;;;;13.28;91.11;100158.22;5050320;28;20219;-69
2022/05/04 01:15:48;;;;;;;1.70;1.60;;;;;;;13.43;88.71;100193.00;5050427;28;20772;-69
2022/05/04 01:18:15;;;;;;;1.80;1.60;;;;;;;13.63;88.33;100202.66;5050175;28;20265;-69
2022/05/04 01:20:44;;;;;;;2.30;1.50;;;;;;;13.51;87.14;100186.09;5049941;28;20664;-69
2022/05/04 01:23:13;;;;;;;1.73;1.63;;;;;;;13.77;86.26;100197.50;5053268;28;20203;-69
2022/05/04 01:25:40;;;;;;;2.08;1.90;;;;;;;13.48;87.03;100167.88;5054168;28;20203;-69
2022/05/04 01:28:07;;;;;;;1.63;1.58;;;;;;;13.57;86.70;100186.13;5054128;28;20218;-70
2022/05/04 01:30:35;;;;;;;2.45;1.67;;;;;;;13.49;86.88;100180.00;5018805;28;20211;-69
2022/05/04 01:33:02;;;;;;;2.55;1.50;;;;;;;13.51;87.15;100191.31;5054530;28;20556;-69
2022/05/04 01:35:29;;;;;;;2.88;2.03;;;;;;;13.32;87.04;100159.97;5053424;28;20230;-70
2022/05/04 01:37:56;;;;;;;1.65;1.60;;;;;;;13.33;86.18;100179.94;5053610;28;20195;-69
2022/05/04 01:40:24;;;;;;;1.77;1.70;;;;;;;13.36;87.58;100198.19;5037208;28;20198;-70
2022/05/04 01:42:51;;;;;;;1.70;1.60;;;;;;;13.24;86.59;100181.59;5049640;28;20203;-69
2022/05/04 01:45:17;;;;;;;4.38;1.95;;;;;;;13.48;85.86;100186.09;5053337;28;20211;-69
2022/05/04 01:47:48;;;;;;;1.92;1.83;;;;;;;13.47;85.69;100185.22;5054181;28;20210;-69
2022/05/04 01:50:15;;;;;;;2.00;1.90;;;;;;;13.31;85.10;100163.44;5053062;28;20203;-69
2022/05/04 01:52:41;;;;;;;2.00;1.90;;;;;;;13.36;84.71;100166.94;5053350;28;20290;-69
2022/05/04 01:55:09;;;;;;;1.88;1.52;;;;;;;13.36;84.88;100160.84;5053104;28;20239;-69
2022/05/04 01:57:38;;;;;;;1.67;1.58;;;;;;;13.53;84.53;100185.25;5053204;28;20211;-69
2022/05/04 02:00:06;;;;;;;2.13;1.60;;;;;;;13.53;82.74;100173.94;5053150;28;20341;-69
2022/05/04 02:02:34;;;;;;;1.60;1.50;;;;;;;13.76;81.49;100172.31;5014086;28;20203;-70
2022/05/04 02:05:00;;;;;;;1.90;1.70;;;;;;;13.65;80.60;100171.41;5053452;28;20204;-69
2022/05/04 02:07:28;;;;;;;1.58;1.48;;;;;;;13.83;78.37;100180.16;5053318;28;20643;-69
2022/05/04 02:09:56;;;;;;;1.65;1.55;;;;;;;13.72;78.57;100165.34;5049455;28;20283;-69
2022/05/04 02:12:23;;;;;;;1.77;1.67;;;;;;;13.91;77.79;100185.41;5038667;28;20204;-69
2022/05/04 02:14:51;;;;;;;2.45;1.73;;;;;;;13.68;76.23;100121.91;5052835;28;20230;-70
2022/05/04 02:17:18;;;;;;;1.85;1.75;;;;;;;13.83;76.39;100179.28;5052858;28;20227;-69
2022/05/04 02:19:45;;;;;;;1.65;1.55;;;;;;;14.07;76.16;100207.16;5053035;28;20199;-70
2022/05/04 02:22:12;;;;;;;1.50;1.50;;;;;;;14.17;77.44;100212.41;5053025;28;20204;-69
2022/05/04 02:24:38;;;;;;;1.60;1.50;;;;;;;14.14;78.29;100198.50;5053087;28;20202;-69
2022/05/04 02:27:06;;;;;;;1.98;1.88;;;;;;;14.09;80.48;100198.47;5052572;28;20625;-69
2022/05/04 02:29:32;;;;;;;1.38;1.30;;;;;;;13.97;78.83;100192.38;5052564;28;20196;-69
2022/05/04 02:32:00;;;;;;;1.80;1.70;;;;;;;14.13;78.62;100184.56;5052756;28;20211;-69
2022/05/04 02:34:27;;;;;;;1.75;1.65;;;;;;;14.07;76.94;100184.56;5052605;28;20203;-69
2022/05/04 02:39:38;;;;;;;2.03;1.38;;;;;;;13.79;77.95;100177.53;5052285;28;20217;-69
2022/05/04 02:42:06;;;;;;;1.98;1.85;;;;;;;13.89;77.53;100203.63;5052518;28;20634;-69
2022/05/04 02:44:33;;;;;;;1.60;1.60;;;;;;;13.97;77.10;100194.97;5052484;28;20214;-69
2022/05/04 02:47:01;;;;;;;1.88;1.70;;;;;;;14.19;76.29;100200.25;5051894;28;20191;-69
2022/05/04 02:49:28;;;;;;;3.33;2.50;;;;;;;13.87;77.50;100191.47;5013754;28;20597;-69
2022/05/04 02:51:54;;;;;;;2.65;2.42;;;;;;;13.71;78.66;100205.31;5021229;28;20200;-69
2022/05/04 02:54:21;;;;;;;2.35;2.00;;;;;;;13.78;78.69;100199.25;5052379;28;20219;-69
2022/05/04 02:56:48;;;;;;;3.10;2.30;;;;;;;13.91;78.30;100207.09;5033496;28;20226;-69
2022/05/04 02:59:15;;;;;;;3.72;2.45;;;;;;;14.01;78.99;100205.44;5052105;28;20218;-69
2022/05/04 03:04:38;;;;;;;2.67;1.95;;;;;;;13.72;78.32;100176.66;4990078;28;20205;-69
2022/05/04 03:07:05;;;;;;;1.98;1.80;;;;;;;14.04;79.34;100205.44;4932444;28;20564;-69
2022/05/04 03:09:32;;;;;;;1.63;1.63;;;;;;;14.23;77.06;100201.97;4977504;28;20201;-69
2022/05/04 03:11:59;;;;;;;2.15;1.50;;;;;;;14.19;76.30;100189.84;4990347;28;20209;-69
2022/05/04 03:14:28;;;;;;;4.20;2.05;;;;;;;14.32;76.26;100193.31;4990066;28;20197;-69
2022/05/04 03:16:55;;;;;;;3.58;2.13;;;;;;;14.12;83.17;100189.81;4989218;28;20721;-68
2022/05/04 03:19:24;;;;;;;1.90;1.80;;;;;;;14.42;94.40;100205.53;4990012;28;20194;-68
2022/05/04 03:21:52;;;;;;;11.57;6.85;;;;;;;14.15;100.00;100208.94;4990073;28;20205;-69
2022/05/04 03:24:20;;;;;;;2.50;2.30;;;;;;;14.05;98.05;100217.59;4957287;28;20709;-68
2022/05/04 03:26:46;;;;;;;2.58;2.38;;;;;;;14.15;96.81;100218.50;4989860;28;20197;-69
2022/05/04 03:29:13;;;;;;;2.47;2.28;;;;;;;14.04;97.18;100215.84;4990187;28;20741;-69
2022/05/04 03:31:40;;;;;;;5.85;3.72;;;;;;;14.41;100.00;100209.03;4989645;28;20208;-72
2022/05/04 03:34:07;;;;;;;3.03;2.70;;;;;;;14.76;100.00;100219.50;4989608;28;20201;-69
2022/05/04 03:36:35;;;;;;;2.35;2.22;;;;;;;14.67;100.00;100224.69;4930849;28;20234;-69
2022/05/04 03:39:04;;;;;;;2.60;2.40;;;;;;;14.84;96.72;100238.63;4970954;28;20778;-69
2022/05/04 03:41:31;;;;;;;2.72;2.50;;;;;;;14.55;92.19;100209.91;5022568;28;20195;-69
2022/05/04 03:43:58;;;;;;;2.45;2.15;;;;;;;14.55;85.53;100224.69;5025952;28;20321;-69
2022/05/04 03:46:27;;;;;;;2.20;2.00;;;;;;;14.37;81.64;100210.78;5060809;28;20282;-69
2022/05/04 03:48:56;;;;;;;2.00;1.90;;;;;;;14.47;79.50;100205.56;5059931;28;20195;-68
2022/05/04 03:51:22;;;;;;;2.42;2.20;;;;;;;14.74;77.83;100209.03;5040225;28;20192;-69
2022/05/04 03:53:50;;;;;;;2.10;2.00;;;;;;;15.28;75.27;100204.63;5060400;28;20210;-69
2022/05/04 03:56:20;;;;;;;4.43;1.98;;;;;;;15.80;71.07;100206.22;5056286;28;20658;-69
2022/05/04 03:58:47;;;;;;;2.38;1.50;;;;;;;16.71;67.09;100217.94;5066479;28;20211;-69
2022/05/04 04:01:14;;;;;;;1.98;1.88;;;;;;;17.28;64.33;100225.28;5050331;28;20709;-69
2022/05/04 04:03:41;;;;;;;3.15;1.90;;;;;;;17.65;60.84;100235.44;5048819;28;20196;-70
2022/05/04 04:06:08;;;;;;;3.47;1.90;;;;;;;18.09;59.90;100243.63;5039902;28;20199;-70
2022/05/04 04:08:35;;;;;;;3.25;1.73;;;;;;;18.03;58.92;100235.84;5041365;28;20227;-70
2022/05/04 04:11:02;;;;;;;2.03;1.83;;;;;;;17.58;59.80;100228.53;5013120;28;20684;-69
2022/05/04 04:13:30;;;;;;;2.17;2.08;;;;;;;17.68;60.14;100231.03;5014813;28;20204;-69
2022/05/04 04:15:57;;;;;;;6.40;1.90;;;;;;;17.69;58.94;100184.69;5049311;28;20219;-69
2022/05/04 04:18:25;;;;;;;2.42;2.22;;;;;;;17.85;59.22;100228.19;5051135;28;20211;-70
2022/05/04 04:23:38;;;;;;;1.98;1.80;;;;;;;17.09;61.48;100220.22;5048315;28;20206;-69
2022/05/04 04:26:06;;;;;;;2.38;2.17;;;;;;;17.06;61.47;100205.41;5051003;28;20206;-69
2022/05/04 04:28:35;;;;;;;2.15;2.00;;;;;;;17.33;61.46;100236.63;5045760;28;20571;-69
2022/05/04 04:31:03;;;;;;;4.72;2.50;;;;;;;17.37;63.57;100228.72;5050507;28;20207;-68
2022/05/04 04:33:30;;;;;;;2.40;2.20;;;;;;;17.32;61.72;100247.97;5050612;28;20664;-68
2022/05/04 04:35:57;;;;;;;2.53;2.20;;;;;;;16.88;66.78;100259.72;5050003;28;20945;-68
2022/05/04 04:38:23;;;;;;;3.42;3.20;;;;;;;16.79;72.87;100266.78;5050649;28;20203;-68
2022/05/04 04:40:51;;;;;;;2.38;2.28;;;;;;;16.70;71.45;100261.59;5050465;28;20210;-69
2022/05/04 04:43:18;;;;;;;2.47;2.28;;;;;;;16.58;74.30;100266.06;5015842;28;20226;-68
2022/05/04 04:45:46;;;;;;;5.95;2.40;;;;;;;16.70;76.39;100261.59;5050145;28;20687;-69
2022/05/04 04:48:14;;;;;;;6.38;2.20;;;;;;;16.24;78.88;100260.97;5047209;28;20675;-69
2022/05/04 04:50:41;;;;;;;2.70;2.50;;;;;;;16.03;78.81;100265.44;5050440;28;20682;-69
2022/05/04 04:53:07;;;;;;;4.75;2.40;;;;;;;15.87;79.89;100254.16;5050952;28;20635;-70
2022/05/04 04:55:34;;;;;;;2.72;2.53;;;;;;;15.83;81.71;100260.28;5049241;28;20651;-69
2022/05/04 04:58:01;;;;;;;9.13;2.90;;;;;;;16.05;80.99;100261.91;5017373;28;20257;-69
2022/05/04 05:00:28;;;;;;;3.33;2.72;;;;;;;16.36;78.79;100260.03;5053524;28;20200;-69
2022/05/04 05:02:56;;;;;;;2.83;2.40;;;;;;;16.61;76.52;100271.25;5035673;28;20200;-69
2022/05/04 05:05:23;;;;;;;66.18;28.77;;;;;;;16.66;72.40;100272.09;5055125;28;20298;-69
2022/05/04 05:07:50;;;;;;;61.25;27.67;;;;;;;16.88;70.29;100276.28;5054107;28;20203;-69
2022/05/04 05:10:17;;;;;;;12.13;6.63;;;;;;;16.92;75.43;100272.78;5054342;28;20199;-69
2022/05/04 05:12:44;;;;;;;5.82;4.22;;;;;;;16.92;71.44;100274.53;5054257;28;20199;-68
2022/05/04 05:17:57;;;;;;;42.88;18.52;;;;;;;17.27;84.27;100286.44;5047819;28;20215;-67
2022/05/04 05:20:23;;;;;;;33.33;11.05;;;;;;;17.40;75.05;100286.34;5048014;28;20202;-67
2022/05/04 05:22:50;;;;;;;15.27;7.10;;;;;;;17.76;71.56;100280.78;5053530;28;20204;-68
2022/05/04 05:25:17;;;;;;;4.38;2.72;;;;;;;17.67;71.25;100291.34;5053844;28;20214;-68
2022/05/04 05:27:44;;;;;;;3.72;2.65;;;;;;;17.60;71.28;100274.81;5019194;28;20222;-68
2022/05/04 05:30:12;;;;;;;6.43;2.78;;;;;;;17.61;69.94;100291.41;5054460;28;20196;-67
2022/05/04 05:32:39;;;;;;;10.35;3.15;;;;;;;17.74;70.37;100278.16;5054150;28;20191;-67
2022/05/04 05:35:09;;;;;;;7.13;2.20;;;;;;;16.82;73.40;100277.22;5053829;28;20261;-66
2022/05/04 05:37:36;;;;;;;4.07;2.20;;;;;;;17.10;72.22;100277.00;5018908;28;20223;-67
2022/05/04 05:40:03;;;;;;;4.93;2.67;;;;;;;17.38;70.82;100278.47;5053854;28;20195;-67
2022/05/04 05:42:30;;;;;;;2.63;2.42;;;;;;;18.21;68.45;100282.84;5054219;28;20203;-68
2022/05/04 05:44:57;;;;;;;3.15;2.45;;;;;;;18.52;64.33;100285.06;5053941;28;20203;-68
2022/05/04 05:47:24;;;;;;;11.25;6.35;;;;;;;19.20;72.95;100286.63;5054235;28;20196;-67
2022/05/04 05:49:50;;;;;;;5.32;2.83;;;;;;;19.02;61.71;100272.03;5053595;28;20199;-67
2022/05/04 05:52:19;;;;;;;4.93;2.90;;;;;;;19.50;59.86;100294.06;5053822;28;20207;-67
2022/05/04 05:54:45;;;;;;;3.58;2.90;;;;;;;19.59;60.55;100295.63;5053139;28;20240;-67
2022/05/04 05:57:12;;;;;;;3.55;2.72;;;;;;;19.29;61.39;100295.25;5053497;28;20223;-67
2022/05/04 05:59:39;;;;;;;2.95;2.08;;;;;;;19.38;62.46;100301.22;5053017;28;20195;-67
2022/05/04 06:02:06;;;;;;;2.85;2.17;;;;;;;18.67;64.17;100276.97;5053379;28;20252;-68
2022/05/04 06:04:33;;;;;;;2.60;2.40;;;;;;;18.39;66.19;100288.72;5018308;28;20281;-68
2022/05/04 06:07:00;;;;;;;8.20;2.17;;;;;;;17.76;67.03;100286.00;5053078;28;20196;-67
2022/05/04 06:09:28;;;;;;;2.92;2.42;;;;;;;17.91;67.60;100264.84;5052277;28;20211;-67
2022/05/04 06:11:56;;;;;;;4.55;2.45;;;;;;;18.18;66.59;100296.00;5017797;28;20587;-68
2022/05/04 06:14:23;;;;;;;2.72;2.53;;;;;;;18.55;64.74;100301.66;5052832;28;20195;-68
2022/05/04 06:16:50;;;;;;;3.13;2.25;;;;;;;18.86;62.34;100275.81;5017941;28;20234;-68
2022/05/04 06:19:17;;;;;;;2.60;2.40;;;;;;;19.10;62.75;100299.06;5052924;28;20675;-69
2022/05/04 06:21:44;;;;;;;3.72;2.30;;;;;;;19.52;60.08;100299.25;5052847;28;20222;-69
2022/05/04 06:24:11;;;;;;;2.03;1.92;;;;;;;19.35;58.99;100301.28;5052833;28;20767;-69
2022/05/04 06:26:39;;;;;;;6.05;2.20;;;;;;;19.28;59.90;100297.91;5017415;28;20195;-70
2022/05/04 06:29:06;;;;;;;2.30;1.75;;;;;;;19.22;59.15;100296.25;5017629;28;20203;-69
2022/05/04 06:34:17;;;;;;;2.95;2.65;;;;;;;19.18;58.61;100275.31;5052786;28;20218;-69
2022/05/04 06:36:44;;;;;;;2.47;1.67;;;;;;;18.99;57.38;100255.47;5052475;28;20219;-69
2022/05/04 06:39:12;;;;;;;11.20;2.45;;;;;;;18.69;56.99;100254.19;5052376;28;20199;-69
2022/05/04 06:41:41;;;;;;;84.65;7.97;;;;;;;18.87;57.44;100267.03;5052718;28;20218;-69
2022/05/04 06:44:08;;;;;;;19.50;3.13;;;;;;;18.72;57.60;100286.56;5052357;28;20238;-69
2022/05/04 06:46:41;;;;;;;1.75;1.65;;;;;;;18.48;57.76;100288.63;5052206;28;20235;-69
2022/05/04 06:49:09;;;;;;;12.65;2.70;;;;;;;18.25;58.70;100281.91;5052277;28;20203;-69
2022/05/04 06:51:36;;;;;;;1.90;1.80;;;;;;;18.30;58.94;100284.47;5052404;28;20208;-70
2022/05/04 06:54:03;;;;;;;2.25;2.13;;;;;;;18.68;59.08;100289.22;5016965;28;20241;-69
2022/05/04 06:56:29;;;;;;;27.58;3.72;;;;;;;18.62;60.57;100269.16;5052181;28;20231;-67
2022/05/04 06:58:58;;;;;;;25.45;2.80;;;;;;;18.93;60.99;100290.59;5052058;28;20206;-73
2022/05/04 07:01:24;;;;;;;3.72;2.30;;;;;;;18.82;60.48;100282.00;5052100;28;20202;-68
2022/05/04 07:03:51;;;;;;;6.95;2.13;;;;;;;18.93;59.84;100251.19;5052299;28;20195;-69
2022/05/04 07:06:18;;;;;;;8.68;2.20;;;;;;;19.17;58.94;100284.06;5051899;28;20210;-69
2022/05/04 07:08:45;;;;;;;33.33;4.70;;;;;;;18.93;60.55;100279.22;5052065;28;20203;-68
2022/05/04 07:11:11;;;;;;;6.53;3.00;;;;;;;19.13;60.00;100285.00;5051982;28;20210;-68
2022/05/04 07:13:38;;;;;;;38.90;5.40;;;;;;;18.81;59.36;100275.88;5051796;28;20199;-68
2022/05/04 07:16:08;;;;;;;15.38;3.03;;;;;;;19.17;59.65;100270.94;5051464;28;20706;-68
2022/05/04 07:18:35;;;;;;;10.20;2.25;;;;;;;18.99;59.70;100282.59;5051423;28;20287;-68
2022/05/04 07:21:02;;;;;;;2.28;2.10;;;;;;;19.35;59.68;100272.38;5050776;28;20198;-69
2022/05/04 07:23:29;;;;;;;3.17;1.90;;;;;;;19.38;59.31;100264.41;5051579;28;20199;-69
2022/05/04 07:25:55;;;;;;;5.47;2.30;;;;;;;19.40;58.60;100275.78;5051506;28;20199;-69
2022/05/04 07:28:22;;;;;;;14.73;2.75;;;;;;;19.37;59.09;100276.69;5051533;28;20200;-69
2022/05/04 07:30:49;;;;;;;2.95;2.05;;;;;;;19.47;58.83;100285.34;5051425;28;20211;-69
2022/05/04 07:33:17;;;;;;;2.00;1.90;;;;;;;19.60;59.57;100287.72;5051229;28;20200;-69
2022/05/04 07:35:44;;;;;;;1.80;1.70;;;;;;;19.59;59.08;100295.63;5051561;28;20243;-68
2022/05/04 07:38:11;;;;;;;1.92;1.83;;;;;;;19.75;58.09;100283.94;5051506;28;20227;-68
2022/05/04 07:43:21;;;;;;;1.80;1.70;;;;;;;19.65;55.76;100285.00;5051309;28;20215;-69
2022/05/04 07:45:48;;;;;;;2.83;1.60;;;;;;;19.35;55.16;100291.66;5051166;28;20215;-69
2022/05/04 07:48:15;;;;;;;3.10;1.88;;;;;;;19.26;55.61;100290.03;5051202;28;20218;-68
2022/05/04 07:50:43;;;;;;;2.97;2.00;;;;;;;19.99;56.70;100291.34;5051190;28;20199;-68
2022/05/04 07:53:10;;;;;;;2.22;2.00;;;;;;;19.98;54.52;100300.13;5051162;28;20198;-68
2022/05/04 07:55:37;;;;;;;5.72;1.88;;;;;;;19.78;54.62;100271.59;5050847;28;20239;-68
2022/05/04 07:58:04;;;;;;;1.92;1.83;;;;;;;19.47;51.78;100304.63;5015616;28;20250;-68
2022/05/04 08:06:00;;;;;;;2.47;2.00;;;;;;;20.09;52.11;100303.44;5050809;28;20678;-68
2022/05/04 08:08:27;;;;;;;4.43;1.70;;;;;;;20.00;50.92;100303.63;5050779;28;20199;-68
2022/05/04 08:10:53;;;;;;;2.55;2.08;;;;;;;20.20;50.79;100311.09;5050785;28;20241;-68
2022/05/04 08:13:20;;;;;;;1.67;1.55;;;;;;;19.96;51.46;100306.34;5050894;28;20200;-68
2022/05/04 08:15:47;;;;;;;1.90;1.80;;;;;;;20.23;51.14;100293.47;5050376;28;20207;-69
2022/05/04 08:18:14;;;;;;;2.00;1.90;;;;;;;20.31;47.14;100316.19;5050489;28;20318;-68
2022/05/04 08:20:42;;;;;;;2.72;1.60;;;;;;;20.23;46.54;100311.91;5050528;28;20285;-68
2022/05/04 08:23:10;;;;;;;1.65;1.55;;;;;;;20.45;46.02;100306.22;5050732;28;20199;-69
2022/05/04 08:25:37;;;;;;;2.33;2.03;;;;;;;20.20;47.69;100317.25;5050754;28;20237;-69
2022/05/04 08:28:04;;;;;;;1.77;1.67;;;;;;;20.14;46.52;100312.13;5050429;28;20203;-69
2022/05/04 08:30:31;;;;;;;1.75;1.65;;;;;;;20.11;47.23;100313.94;5015258;28;20211;-68
2022/05/04 08:32:58;;;;;;;1.70;1.60;;;;;;;20.19;47.85;100272.53;5050453;28;20211;-68
2022/05/04 08:35:25;;;;;;;1.65;1.55;;;;;;;20.52;46.82;100306.06;5050354;28;20206;-68
2022/05/04 08:37:51;;;;;;;1.20;1.20;;;;;;;20.39;45.60;100315.13;5050336;28;20231;-68
2022/05/04 08:40:20;;;;;;;2.58;1.50;;;;;;;20.62;45.30;100312.84;5050635;28;20200;-69
2022/05/04 08:42:46;;;;;;;3.83;1.92;;;;;;;20.48;45.34;100316.69;5050421;28;20199;-68
2022/05/04 08:45:14;;;;;;;1.45;1.35;;;;;;;20.55;46.28;100286.66;5050362;28;20199;-68
2022/05/04 08:47:44;;;;;;;3.28;1.80;;;;;;;20.95;46.34;100319.13;5050386;28;20199;-68
2022/05/04 08:50:13;;;;;;;2.75;1.60;;;;;;;20.98;45.59;100303.22;5031639;28;20195;-69
2022/05/04 08:52:44;;;;;;;1.60;1.50;;;;;;;21.08;44.85;100315.28;5050405;28;20562;-68
2022/05/04 08:55:11;;;;;;;2.45;1.90;;;;;;;20.96;45.47;100310.31;5049885;28;20235;-69
2022/05/04 08:57:40;;;;;;;3.42;2.28;;;;;;;20.80;45.10;100313.38;5050121;28;20227;-68
2022/05/04 09:00:10;;;;;;;2.95;1.88;;;;;;;20.97;45.59;100301.53;5049866;28;20207;-68
2022/05/04 09:02:38;;;;;;;1.73;1.70;;;;;;;21.23;45.98;100304.41;5015942;28;20195;-69
2022/05/04 09:05:21;;;;;;;1.67;1.60;;;;;;;21.51;45.08;100314.28;5050035;28;20282;-68
2022/05/04 09:07:49;;;;;;;1.38;1.38;;;;;;;21.32;44.32;100308.59;5050336;28;20210;-68
2022/05/04 09:10:19;;;;;;;1.90;1.80;;;;;;;21.41;44.00;100307.47;5015692;28;20631;-68
2022/05/04 09:12:48;;;;;;;2.45;1.75;;;;;;;21.22;44.19;100309.75;5050222;28;20602;-68
2022/05/04 09:15:23;;;;;;;2.53;1.95;;;;;;;21.48;43.90;100309.06;5049867;28;20195;-69
2022/05/04 09:17:58;;;;;;;1.55;1.45;;;;;;;21.90;43.74;100292.13;5049936;28;20699;-69
2022/05/04 09:23:12;;;;;;;1.23;1.23;;;;;;;21.00;44.89;100306.72;5049875;28;20596;-69
2022/05/04 09:25:39;;;;;;;3.58;1.80;;;;;;;21.23;44.18;100303.53;5050044;28;20234;-68
2022/05/04 09:28:12;;;;;;;3.63;1.80;;;;;;;21.65;43.01;100296.31;5049813;28;20208;-69
2022/05/04 09:30:45;;;;;;;5.22;1.73;;;;;;;21.22;43.84;100280.72;5049927;28;20675;-68
2022/05/04 09:33:13;;;;;;;1.92;1.80;;;;;;;21.20;44.32;100296.56;5015456;28;20235;-68
2022/05/04 09:35:41;;;;;;;2.55;1.55;;;;;;;21.41;44.57;100292.53;5049625;28;20282;-68
2022/05/04 09:46:40;;;;;;;1.75;1.65;;;;;;;21.12;45.53;100276.56;5053481;28;20207;-68
2022/05/04 09:49:11;;;;;;;1.55;1.48;;;;;;;21.35;45.71;100281.25;5053512;28;20297;-68
2022/05/04 09:51:38;;;;;;;2.03;1.70;;;;;;;21.09;45.75;100242.31;5050042;28;21688;-68
2022/05/04 09:54:17;;;;;;;2.13;2.03;;;;;;;21.32;45.47;100281.34;5033372;28;20678;-68
2022/05/04 09:56:46;;;;;;;2.08;1.70;;;;;;;21.59;45.41;100278.84;4998536;28;20211;-68
2022/05/04 09:59:15;;;;;;;1.40;1.40;;;;;;;21.70;45.81;100263.59;5033616;28;20200;-68
2022/05/04 10:01:43;;;;;;;2.75;1.73;;;;;;;21.67;45.64;100271.59;5033462;28;20204;-68
2022/05/04 10:04:10;;;;;;;5.88;2.00;;;;;;;21.57;44.95;100256.06;5033109;28;20207;-68
2022/05/04 10:06:37;;;;;;;1.85;1.75;;;;;;;21.41;45.52;100276.69;5033347;28;20219;-68
2022/05/04 10:09:04;;;;;;;2.65;2.35;;;;;;;21.12;46.44;100268.66;5033134;28;20628;-67
2022/05/04 10:11:33;;;;;;;5.03;3.13;;;;;;;21.48;50.99;100257.16;5033319;28;20203;-76
2022/05/04 10:14:03;;;;;;;14.15;2.90;;;;;;;21.85;46.68;100262.31;5033178;28;20208;-67
2022/05/04 10:16:34;;;;;;;4.35;2.17;;;;;;;21.60;46.50;100250.69;5033133;28;20212;-66
2022/05/04 10:19:05;;;;;;;2.78;2.58;;;;;;;21.69;47.54;100251.28;5032766;28;20618;-74
2022/05/04 10:21:32;;;;;;;3.15;1.95;;;;;;;21.51;46.85;100270.25;5032936;28;20196;-75
2022/05/04 10:24:02;;;;;;;3.92;2.38;;;;;;;21.77;48.65;100270.44;4997929;28;20680;-67
2022/05/04 10:26:33;;;;;;;2.60;2.40;;;;;;;21.82;46.12;100209.59;5032961;28;20287;-67
2022/05/04 10:31:56;;;;;;;12.63;3.00;;;;;;;22.17;46.12;100259.63;4971661;28;20205;-67
2022/05/04 10:34:23;;;;;;;5.38;3.22;;;;;;;22.04;46.94;100263.56;4971426;28;20301;-67
2022/05/04 10:36:54;;;;;;;12.70;3.47;;;;;;;22.30;47.35;100256.59;4971581;28;20200;-67
2022/05/04 10:39:22;;;;;;;4.72;2.78;;;;;;;22.39;47.52;100259.00;4971633;28;20202;-66
2022/05/04 10:41:49;;;;;;;2.80;2.60;;;;;;;22.30;47.23;100252.19;4971708;28;20258;-68
2022/05/04 10:44:17;;;;;;;6.45;2.97;;;;;;;21.94;48.80;100256.78;4971256;28;20202;-67
2022/05/04 10:46:46;;;;;;;4.70;2.70;;;;;;;21.52;48.08;100252.66;4971198;28;20280;-67
2022/05/04 10:49:16;;;;;;;2.83;2.40;;;;;;;22.09;47.53;100239.63;4971124;28;20202;-67
2022/05/04 10:51:46;;;;;;;2.22;2.13;;;;;;;22.28;47.44;100247.88;4971031;28;20205;-67
2022/05/04 10:54:16;;;;;;;2.38;2.25;;;;;;;22.57;46.98;100248.72;4971295;28;20213;-67
2022/05/04 10:56:44;;;;;;;2.67;2.33;;;;;;;22.24;47.14;100244.47;4970903;28;20662;-67
2022/05/04 10:59:12;;;;;;;2.97;2.30;;;;;;;22.04;47.29;100241.56;4939320;28;20270;-68
2022/05/04 11:01:40;;;;;;;8.10;2.40;;;;;;;22.07;47.75;100244.97;4970988;28;20201;-67
2022/05/04 11:04:22;;;;;;;8.20;2.30;;;;;;;22.48;46.07;100232.28;4971152;28;20206;-68
2022/05/04 11:07:04;;;;;;;6.60;2.38;;;;;;;22.80;45.87;100240.06;4971202;28;20206;-66
2022/05/04 11:09:35;;;;;;;4.35;2.47;;;;;;;22.76;47.15;100233.16;5019136;28;20203;-67
2022/05/04 11:12:04;;;;;;;2.30;2.10;;;;;;;22.75;46.74;100230.59;5031942;28;20246;-68
2022/05/04 11:14:33;;;;;;;2.10;2.00;;;;;;;21.97;45.96;100225.03;5031938;28;20224;-72
2022/05/04 11:17:01;;;;;;;2.05;1.95;;;;;;;22.02;46.76;100225.75;5031827;28;20196;-71
2022/05/04 11:19:32;;;;;;;1.95;1.85;;;;;;;22.38;46.27;100217.63;5031878;28;20204;-68
2022/05/04 11:21:59;;;;;;;3.83;2.55;;;;;;;22.91;44.54;100227.38;4997480;28;20246;-67
2022/05/04 11:24:27;;;;;;;4.07;2.10;;;;;;;22.81;43.74;100194.22;5031482;28;20200;-67
2022/05/04 11:26:55;;;;;;;5.95;2.17;;;;;;;22.90;43.82;100224.81;5032005;28;20203;-67
2022/05/04 11:29:23;;;;;;;2.42;2.10;;;;;;;22.78;45.28;100210.19;5031675;28;20238;-71
2022/05/04 11:31:54;;;;;;;5.63;2.08;;;;;;;23.16;44.70;100207.13;5031470;28;20714;-73
2022/05/04 11:34:22;;;;;;;3.58;2.20;;;;;;;23.49;43.76;100220.13;5031406;28;20204;-69
2022/05/04 11:36:52;;;;;;;12.13;2.60;;;;;;;23.29;44.51;100219.94;4996727;28;20196;-70
2022/05/04 11:39:21;;;;;;;2.75;2.53;;;;;;;23.03;43.54;100205.81;4996710;28;20672;-67
2022/05/04 11:41:50;;;;;;;3.58;2.20;;;;;;;22.86;43.95;100202.00;4996375;28;20192;-67
2022/05/04 11:44:18;;;;;;;2.63;2.42;;;;;;;23.06;42.38;100221.56;5031238;28;20215;-67
2022/05/04 11:46:47;;;;;;;4.13;2.38;;;;;;;23.44;41.56;100222.94;5031043;28;20646;-68
2022/05/04 11:49:13;;;;;;;5.47;2.38;;;;;;;23.50;42.34;100213.91;5031367;28;20223;-72
2022/05/04 11:51:40;;;;;;;2.10;2.00;;;;;;;23.64;40.46;100220.44;5031161;28;20594;-73
2022/05/04 11:54:09;;;;;;;3.42;2.03;;;;;;;23.91;38.89;100218.56;5031077;28;20258;-72
2022/05/04 11:56:36;;;;;;;2.58;1.95;;;;;;;23.58;37.07;100190.69;5031160;28;20215;-74
2022/05/04 11:59:03;;;;;;;2.25;2.10;;;;;;;23.94;37.66;100212.28;5030843;28;20211;-68
2022/05/04 12:01:32;;;;;;;7.22;2.38;;;;;;;23.43;39.27;100178.00;5030728;28;20196;-67
2022/05/04 12:03:59;;;;;;;2.45;2.20;;;;;;;23.63;40.14;100212.53;5030946;28;20207;-67
2022/05/04 12:06:27;;;;;;;2.20;1.88;;;;;;;23.56;40.20;100205.75;5030666;28;20196;-67